createdAt,value
2016-11-20T00:00:28.493Z,998.24
2016-11-20T00:01:28.450Z,998.23
2016-11-20T00:02:28.456Z,998.19
2016-11-20T00:03:28.513Z,998.19
2016-11-20T00:04:28.469Z,998.17
2016-11-20T00:05:28.476Z,998.17
2016-11-20T00:06:28.483Z,998.16
2016-11-20T00:07:28.490Z,998.15
2016-11-20T00:08:28.497Z,998.14
2016-11-20T00:09:28.503Z,998.09
2016-11-20T00:10:28.510Z,998.14
2016-11-20T00:11:28.517Z,998.03
2016-11-20T00:12:28.524Z,998.03
2016-11-20T00:13:28.530Z,998.08
2016-11-20T00:14:28.537Z,998.08
2016-11-20T00:15:28.545Z,998.12
2016-11-20T00:16:28.601Z,998.04
2016-11-20T00:17:28.556Z,998.01
2016-11-20T00:18:28.564Z,998.03
2016-11-20T00:19:28.572Z,997.98
2016-11-20T00:20:28.576Z,998.02
2016-11-20T00:21:28.585Z,997.96
2016-11-20T00:22:28.592Z,997.99
2016-11-20T00:23:28.600Z,997.95
2016-11-20T00:24:28.606Z,997.95
2016-11-20T00:25:28.663Z,997.91
2016-11-20T00:26:28.670Z,997.9
2016-11-20T00:27:28.626Z,997.84
2016-11-20T00:28:28.790Z,997.96
2016-11-20T00:29:28.640Z,997.88
2016-11-20T00:30:28.647Z,997.92
2016-11-20T00:31:28.653Z,997.83
2016-11-20T00:32:28.660Z,997.91
2016-11-20T00:33:28.667Z,997.8
2016-11-20T00:34:28.674Z,997.83
2016-11-20T00:35:28.679Z,997.82
2016-11-20T00:36:28.687Z,997.8
2016-11-20T00:37:28.695Z,997.79
2016-11-20T00:38:28.700Z,997.86
2016-11-20T00:39:28.706Z,997.77
2016-11-20T00:40:28.714Z,997.8
2016-11-20T00:41:28.721Z,997.78
2016-11-20T00:42:28.727Z,997.78
2016-11-20T00:43:28.835Z,997.8
2016-11-20T00:44:28.740Z,997.72
2016-11-20T00:45:28.748Z,997.72
2016-11-20T00:46:28.754Z,997.69
2016-11-20T00:47:28.761Z,997.72
2016-11-20T00:48:28.771Z,997.66
2016-11-20T00:49:28.774Z,997.67
2016-11-20T00:50:28.831Z,997.63
2016-11-20T00:51:28.789Z,997.61
2016-11-20T00:52:28.795Z,997.55
2016-11-20T00:53:28.800Z,997.47
2016-11-20T00:54:29.408Z,997.48
2016-11-20T00:55:28.815Z,997.42
2016-11-20T00:56:28.821Z,997.38
2016-11-20T00:57:28.826Z,997.43
2016-11-20T00:58:28.835Z,997.4
2016-11-20T00:59:28.842Z,997.36
2016-11-20T01:00:28.849Z,997.33
2016-11-20T01:01:28.854Z,997.34
2016-11-20T01:02:28.912Z,997.34
2016-11-20T01:03:28.869Z,997.37
2016-11-20T01:04:28.875Z,997.32
2016-11-20T01:05:28.883Z,997.29
2016-11-20T01:06:28.890Z,997.22
2016-11-20T01:07:28.895Z,997.22
2016-11-20T01:08:28.901Z,997.24
2016-11-20T01:09:28.909Z,997.22
2016-11-20T01:10:28.913Z,997.2
2016-11-20T01:11:28.921Z,997.21
2016-11-20T01:12:28.928Z,997.15
2016-11-20T01:13:28.935Z,997.14
2016-11-20T01:14:28.943Z,997.16
2016-11-20T01:15:28.948Z,997.08
2016-11-20T01:16:28.956Z,997.01
2016-11-20T01:17:28.962Z,997.01
2016-11-20T01:18:28.969Z,996.96
2016-11-20T01:19:28.977Z,996.94
2016-11-20T01:20:28.982Z,996.94
2016-11-20T01:21:28.990Z,996.94
2016-11-20T01:22:29.044Z,996.87
2016-11-20T01:23:29.002Z,996.85
2016-11-20T01:24:29.009Z,996.83
2016-11-20T01:25:29.268Z,996.79
2016-11-20T01:26:29.024Z,996.79
2016-11-20T01:27:29.030Z,996.76
2016-11-20T01:28:29.038Z,996.73
2016-11-20T01:29:29.044Z,996.71
2016-11-20T01:30:29.051Z,996.7
2016-11-20T01:31:29.057Z,996.68
2016-11-20T01:32:29.064Z,996.64
2016-11-20T01:33:29.070Z,996.64
2016-11-20T01:34:29.078Z,996.6
2016-11-20T01:35:29.084Z,996.55
2016-11-20T01:36:29.546Z,996.56
2016-11-20T01:37:29.148Z,996.5
2016-11-20T01:38:29.106Z,996.46
2016-11-20T01:39:29.112Z,996.43
2016-11-20T01:40:29.118Z,996.46
2016-11-20T01:41:29.125Z,996.42
2016-11-20T01:42:29.184Z,996.49
2016-11-20T01:43:29.140Z,996.43
2016-11-20T01:44:29.147Z,996.42
2016-11-20T01:45:29.153Z,996.45
2016-11-20T01:46:29.160Z,996.42
2016-11-20T01:47:29.969Z,996.44
2016-11-20T01:48:29.174Z,996.46
2016-11-20T01:49:29.181Z,996.39
2016-11-20T01:50:29.188Z,996.39
2016-11-20T01:51:29.194Z,996.38
2016-11-20T01:52:29.201Z,996.39
2016-11-20T01:53:29.207Z,996.39
2016-11-20T01:54:29.214Z,996.42
2016-11-20T01:55:29.221Z,996.48
2016-11-20T01:56:29.228Z,996.46
2016-11-20T01:57:29.235Z,996.42
2016-11-20T01:58:30.343Z,996.44
2016-11-20T01:59:29.247Z,996.4
2016-11-20T02:00:29.306Z,996.38
2016-11-20T02:01:29.262Z,996.44
2016-11-20T02:02:29.268Z,996.39
2016-11-20T02:03:29.276Z,996.4
2016-11-20T02:04:29.282Z,996.35
2016-11-20T02:05:29.290Z,996.37
2016-11-20T02:06:29.295Z,996.31
2016-11-20T02:07:29.303Z,996.33
2016-11-20T02:08:29.310Z,996.26
2016-11-20T02:09:29.367Z,996.24
2016-11-20T02:10:29.374Z,996.23
2016-11-20T02:11:29.329Z,996.16
2016-11-20T02:12:29.337Z,996.18
2016-11-20T02:13:29.393Z,996.18
2016-11-20T02:14:29.400Z,996.15
2016-11-20T02:15:29.357Z,996.06
2016-11-20T02:16:29.365Z,996.06
2016-11-20T02:17:29.371Z,996.01
2016-11-20T02:18:29.378Z,995.99
2016-11-20T02:19:29.385Z,996.03
2016-11-20T02:20:29.441Z,995.91
2016-11-20T02:21:29.398Z,995.82
2016-11-20T02:22:29.456Z,995.78
2016-11-20T02:23:29.412Z,995.78
2016-11-20T02:24:29.468Z,995.69
2016-11-20T02:25:29.475Z,995.66
2016-11-20T02:26:29.432Z,995.69
2016-11-20T02:27:29.439Z,995.7
2016-11-20T02:28:29.445Z,995.7
2016-11-20T02:29:29.452Z,995.69
2016-11-20T02:30:29.510Z,995.75
2016-11-20T02:31:29.517Z,995.69
2016-11-20T02:32:29.474Z,995.62
2016-11-20T02:33:29.482Z,995.56
2016-11-20T02:34:29.487Z,995.51
2016-11-20T02:35:29.492Z,995.46
2016-11-20T02:36:29.748Z,995.49
2016-11-20T02:37:29.556Z,995.47
2016-11-20T02:38:29.514Z,995.41
2016-11-20T02:39:29.520Z,995.31
2016-11-20T02:40:29.528Z,995.41
2016-11-20T02:41:29.534Z,995.39
2016-11-20T02:42:29.541Z,995.41
2016-11-20T02:43:29.547Z,995.32
2016-11-20T02:44:29.554Z,995.32
2016-11-20T02:45:29.561Z,995.28
2016-11-20T02:46:29.567Z,995.16
2016-11-20T02:47:29.624Z,995.04
2016-11-20T02:48:29.631Z,995.03
2016-11-20T02:49:29.588Z,995.03
2016-11-20T02:50:29.593Z,995.11
2016-11-20T02:51:29.601Z,995.13
2016-11-20T02:52:29.608Z,995.16
2016-11-20T02:53:29.666Z,995.13
2016-11-20T02:54:29.620Z,995.02
2016-11-20T02:55:29.978Z,994.98
2016-11-20T02:56:29.635Z,994.97
2016-11-20T02:57:29.641Z,994.95
2016-11-20T02:58:29.698Z,994.92
2016-11-20T02:59:29.655Z,994.94
2016-11-20T03:00:29.714Z,994.91
2016-11-20T03:01:29.669Z,994.84
2016-11-20T03:02:29.674Z,994.83
2016-11-20T03:03:29.681Z,994.87
2016-11-20T03:04:29.739Z,994.91
2016-11-20T03:05:29.694Z,994.86
2016-11-20T03:06:30.552Z,994.79
2016-11-20T03:07:29.708Z,994.84
2016-11-20T03:08:29.714Z,994.81
2016-11-20T03:09:29.770Z,994.82
2016-11-20T03:10:29.729Z,994.77
2016-11-20T03:11:29.737Z,994.81
2016-11-20T03:12:29.742Z,994.79
2016-11-20T03:13:29.799Z,994.79
2016-11-20T03:14:29.756Z,994.86
2016-11-20T03:15:29.762Z,994.79
2016-11-20T03:16:29.770Z,994.89
2016-11-20T03:17:29.826Z,994.77
2016-11-20T03:18:29.784Z,994.79
2016-11-20T03:19:29.790Z,994.81
2016-11-20T03:20:29.796Z,994.72
2016-11-20T03:21:29.803Z,994.65
2016-11-20T03:22:29.810Z,994.53
2016-11-20T03:23:29.816Z,994.5
2016-11-20T03:24:29.822Z,994.51
2016-11-20T03:25:29.830Z,994.37
2016-11-20T03:26:29.935Z,994.3
2016-11-20T03:27:29.843Z,994.3
2016-11-20T03:28:29.851Z,994.26
2016-11-20T03:29:29.905Z,994.22
2016-11-20T03:30:29.863Z,994.2
2016-11-20T03:31:29.870Z,994.19
2016-11-20T03:32:29.878Z,994.05
2016-11-20T03:33:29.884Z,994.1
2016-11-20T03:34:29.889Z,994.09
2016-11-20T03:35:29.896Z,994.09
2016-11-20T03:36:29.903Z,994.01
2016-11-20T03:37:30.611Z,993.95
2016-11-20T03:38:29.917Z,994.01
2016-11-20T03:39:29.922Z,993.99
2016-11-20T03:40:29.930Z,994.01
2016-11-20T03:41:29.938Z,993.94
2016-11-20T03:42:29.944Z,993.91
2016-11-20T03:43:29.949Z,993.8
2016-11-20T03:44:29.956Z,993.92
2016-11-20T03:45:29.963Z,993.85
2016-11-20T03:46:29.970Z,993.84
2016-11-20T03:47:29.976Z,993.78
2016-11-20T03:48:29.982Z,993.81
2016-11-20T03:49:29.989Z,993.75
2016-11-20T03:50:29.996Z,993.68
2016-11-20T03:51:30.004Z,993.72
2016-11-20T03:52:30.009Z,993.62
2016-11-20T03:53:30.016Z,993.57
2016-11-20T03:54:30.022Z,993.63
2016-11-20T03:55:30.030Z,993.58
2016-11-20T03:56:30.035Z,993.56
2016-11-20T03:57:30.242Z,993.58
2016-11-20T03:58:30.049Z,993.54
2016-11-20T03:59:30.055Z,993.54
2016-11-20T04:00:30.063Z,993.65
2016-11-20T04:01:30.068Z,993.63
2016-11-20T04:02:30.076Z,993.6
2016-11-20T04:03:30.082Z,993.58
2016-11-20T04:04:30.137Z,993.58
2016-11-20T04:05:30.095Z,993.54
2016-11-20T04:06:30.103Z,993.5
2016-11-20T04:07:30.117Z,993.47
2016-11-20T04:08:30.465Z,993.49
2016-11-20T04:09:30.122Z,993.56
2016-11-20T04:10:30.127Z,993.47
2016-11-20T04:11:30.133Z,993.41
2016-11-20T04:12:30.190Z,993.39
2016-11-20T04:13:30.147Z,993.36
2016-11-20T04:14:30.203Z,993.29
2016-11-20T04:15:30.160Z,993.34
2016-11-20T04:16:30.168Z,993.31
2016-11-20T04:17:30.174Z,993.21
2016-11-20T04:18:30.181Z,993.16
2016-11-20T04:19:30.189Z,993.11
2016-11-20T04:20:30.243Z,993.12
2016-11-20T04:21:30.199Z,993.08
2016-11-20T04:22:30.206Z,993.1
2016-11-20T04:23:30.213Z,993.07
2016-11-20T04:24:30.220Z,992.98
2016-11-20T04:25:30.226Z,992.97
2016-11-20T04:26:30.234Z,992.89
2016-11-20T04:27:30.240Z,992.9
2016-11-20T04:28:30.247Z,992.93
2016-11-20T04:29:30.253Z,992.84
2016-11-20T04:30:30.260Z,992.91
2016-11-20T04:31:30.316Z,992.79
2016-11-20T04:32:30.323Z,992.85
2016-11-20T04:33:30.279Z,992.84
2016-11-20T04:34:30.287Z,992.74
2016-11-20T04:35:30.292Z,992.76
2016-11-20T04:36:30.299Z,992.75
2016-11-20T04:37:30.306Z,992.67
2016-11-20T04:38:30.312Z,992.59
2016-11-20T04:39:30.320Z,992.58
2016-11-20T04:40:30.324Z,992.57
2016-11-20T04:41:30.332Z,992.56
2016-11-20T04:42:30.389Z,992.58
2016-11-20T04:43:30.345Z,992.57
2016-11-20T04:45:30.362Z,992.44
2016-11-20T04:46:30.363Z,992.42
2016-11-20T04:47:30.371Z,992.36
2016-11-20T04:48:30.384Z,992.31
2016-11-20T04:49:30.385Z,992.22
2016-11-20T04:50:30.391Z,992.14
2016-11-20T04:51:30.397Z,992.17
2016-11-20T04:52:30.418Z,992.17
2016-11-20T04:53:30.412Z,992.12
2016-11-20T04:54:30.419Z,992.07
2016-11-20T04:55:30.423Z,992.04
2016-11-20T04:56:30.432Z,992.02
2016-11-20T04:57:30.437Z,992.02
2016-11-20T04:58:30.444Z,992.02
2016-11-20T04:59:30.450Z,991.93
2016-11-20T05:00:30.457Z,991.88
2016-11-20T05:01:30.462Z,991.93
2016-11-20T05:02:30.468Z,991.98
2016-11-20T05:03:30.475Z,991.81
2016-11-20T05:04:30.483Z,991.75
2016-11-20T05:05:30.488Z,991.65
2016-11-20T05:06:30.495Z,991.68
2016-11-20T05:07:30.501Z,991.7
2016-11-20T05:08:30.507Z,991.7
2016-11-20T05:09:30.515Z,991.63
2016-11-20T05:10:30.520Z,991.57
2016-11-20T05:11:30.527Z,991.48
2016-11-20T05:12:30.533Z,991.46
2016-11-20T05:13:30.541Z,991.44
2016-11-20T05:14:30.546Z,991.48
2016-11-20T05:15:30.553Z,991.3
2016-11-20T05:16:30.809Z,991.31
2016-11-20T05:17:30.565Z,991.28
2016-11-20T05:18:30.572Z,991.3
2016-11-20T05:19:30.579Z,991.24
2016-11-20T05:20:30.585Z,991.24
2016-11-20T05:21:30.592Z,991.13
2016-11-20T05:22:30.598Z,991.12
2016-11-20T05:23:30.604Z,991.07
2016-11-20T05:24:30.610Z,991.16
2016-11-20T05:25:30.622Z,991.12
2016-11-20T05:26:30.625Z,991.22
2016-11-20T05:27:31.080Z,990.97
2016-11-20T05:28:30.637Z,991
2016-11-20T05:29:30.645Z,990.98
2016-11-20T05:30:30.651Z,990.95
2016-11-20T05:31:30.706Z,990.88
2016-11-20T05:32:30.663Z,991.01
2016-11-20T05:33:30.669Z,990.85
2016-11-20T05:34:30.674Z,990.84
2016-11-20T05:35:30.682Z,990.77
2016-11-20T05:36:30.689Z,990.78
2016-11-20T05:37:30.695Z,990.69
2016-11-20T05:38:31.803Z,990.64
2016-11-20T05:39:30.708Z,990.68
2016-11-20T05:40:30.714Z,990.72
2016-11-20T05:41:30.722Z,990.74
2016-11-20T05:42:30.728Z,990.55
2016-11-20T05:43:30.735Z,990.6
2016-11-20T05:44:30.741Z,990.57
2016-11-20T05:45:30.747Z,990.53
2016-11-20T05:46:30.753Z,990.54
2016-11-20T05:47:30.810Z,990.51
2016-11-20T05:48:30.766Z,990.55
2016-11-20T05:49:30.823Z,990.39
2016-11-20T05:50:30.779Z,990.43
2016-11-20T05:51:30.787Z,990.43
2016-11-20T05:52:30.793Z,990.29
2016-11-20T05:53:30.799Z,990.3
2016-11-20T05:54:30.806Z,990.29
2016-11-20T05:55:30.812Z,990.29
2016-11-20T05:56:30.818Z,990.2
2016-11-20T05:57:30.825Z,990.24
2016-11-20T05:58:30.933Z,990.28
2016-11-20T05:59:30.839Z,990.14
2016-11-20T06:00:30.844Z,990.08
2016-11-20T06:01:30.851Z,990.16
2016-11-20T06:02:30.857Z,990.02
2016-11-20T06:03:30.863Z,989.91
2016-11-20T06:04:30.871Z,989.9
2016-11-20T06:05:30.928Z,989.77
2016-11-20T06:06:30.935Z,989.79
2016-11-20T06:07:30.890Z,989.77
2016-11-20T06:08:30.897Z,989.7
2016-11-20T06:09:31.358Z,989.75
2016-11-20T06:10:30.911Z,989.71
2016-11-20T06:11:30.917Z,989.59
2016-11-20T06:12:30.924Z,989.55
2016-11-20T06:13:30.930Z,989.41
2016-11-20T06:14:30.938Z,989.44
2016-11-20T06:15:30.944Z,989.4
2016-11-20T06:16:30.950Z,989.28
2016-11-20T06:17:30.958Z,989.31
2016-11-20T06:18:30.964Z,989.26
2016-11-20T06:19:31.021Z,989.21
2016-11-20T06:20:30.977Z,989.17
2016-11-20T06:21:30.985Z,989.03
2016-11-20T06:22:30.991Z,989.04
2016-11-20T06:23:31.047Z,988.88
2016-11-20T06:24:31.003Z,988.85
2016-11-20T06:25:31.061Z,988.85
2016-11-20T06:26:31.018Z,988.85
2016-11-20T06:27:31.023Z,988.84
2016-11-20T06:28:31.032Z,988.76
2016-11-20T06:29:31.036Z,988.56
2016-11-20T06:30:31.044Z,988.8
2016-11-20T06:31:31.052Z,988.75
2016-11-20T06:32:31.060Z,988.63
2016-11-20T06:33:31.064Z,988.57
2016-11-20T06:34:31.070Z,988.52
2016-11-20T06:35:31.128Z,988.43
2016-11-20T06:36:31.084Z,988.49
2016-11-20T06:37:31.091Z,988.43
2016-11-20T06:38:31.098Z,988.49
2016-11-20T06:39:31.104Z,988.59
2016-11-20T06:40:31.112Z,988.69
2016-11-20T06:41:31.118Z,988.61
2016-11-20T06:42:31.124Z,988.56
2016-11-20T06:43:31.131Z,988.65
2016-11-20T06:44:31.136Z,988.49
2016-11-20T06:45:31.144Z,988.53
2016-11-20T06:46:31.151Z,988.41
2016-11-20T06:47:31.157Z,988.16
2016-11-20T06:48:31.164Z,988.23
2016-11-20T06:49:31.171Z,988.22
2016-11-20T06:50:31.227Z,988.17
2016-11-20T06:51:31.183Z,988.23
2016-11-20T06:52:31.191Z,988.17
2016-11-20T06:53:31.197Z,988.16
2016-11-20T06:54:31.204Z,988.07
2016-11-20T06:55:31.261Z,988.07
2016-11-20T06:56:31.221Z,987.98
2016-11-20T06:57:31.224Z,987.96
2016-11-20T06:58:31.280Z,987.84
2016-11-20T06:59:31.237Z,987.91
2016-11-20T07:00:31.244Z,987.83
2016-11-20T07:01:31.250Z,987.73
2016-11-20T07:02:31.256Z,987.67
2016-11-20T07:03:31.313Z,987.57
2016-11-20T07:04:31.272Z,987.42
2016-11-20T07:05:31.278Z,987.52
2016-11-20T07:06:31.733Z,987.39
2016-11-20T07:07:31.290Z,987.47
2016-11-20T07:08:31.297Z,987.45
2016-11-20T07:09:31.353Z,987.41
2016-11-20T07:10:31.309Z,987.48
2016-11-20T07:11:31.319Z,987.38
2016-11-20T07:12:31.323Z,987.21
2016-11-20T07:13:31.381Z,987.34
2016-11-20T07:14:31.335Z,987.31
2016-11-20T07:15:31.343Z,987.27
2016-11-20T07:16:31.351Z,987.38
2016-11-20T07:17:32.405Z,987.19
2016-11-20T07:18:31.363Z,987.38
2016-11-20T07:19:31.368Z,987.31
2016-11-20T07:20:31.378Z,987.43
2016-11-20T07:21:31.383Z,987.3
2016-11-20T07:22:31.389Z,987.25
2016-11-20T07:23:31.396Z,987.31
2016-11-20T07:24:31.402Z,987.26
2016-11-20T07:25:31.412Z,987.36
2016-11-20T07:26:31.466Z,987.52
2016-11-20T07:27:31.423Z,987.23
2016-11-20T07:28:31.429Z,987.12
2016-11-20T07:29:31.435Z,987.07
2016-11-20T07:30:31.441Z,987
2016-11-20T07:31:31.448Z,986.93
2016-11-20T07:32:31.456Z,986.83
2016-11-20T07:33:31.462Z,987.13
2016-11-20T07:34:31.471Z,987.05
2016-11-20T07:35:31.525Z,987.02
2016-11-20T07:36:31.481Z,987.11
2016-11-20T07:37:31.539Z,987.05
2016-11-20T07:38:31.545Z,987.08
2016-11-20T07:39:31.551Z,987.22
2016-11-20T07:40:31.508Z,987.11
2016-11-20T07:41:31.515Z,987.05
2016-11-20T07:42:31.521Z,987.02
2016-11-20T07:43:31.528Z,987.09
2016-11-20T07:44:31.584Z,987.13
2016-11-20T07:45:31.542Z,987.02
2016-11-20T07:46:31.546Z,987.11
2016-11-20T07:47:31.604Z,986.93
2016-11-20T07:48:32.211Z,987.15
2016-11-20T07:49:31.569Z,987.01
2016-11-20T07:50:31.574Z,987.07
2016-11-20T07:51:31.579Z,987.13
2016-11-20T07:52:31.587Z,987.05
2016-11-20T07:53:31.593Z,987.17
2016-11-20T07:54:31.599Z,987.16
2016-11-20T07:55:31.607Z,987.23
2016-11-20T07:56:31.613Z,987.16
2016-11-20T07:57:31.620Z,987.18
2016-11-20T07:58:31.626Z,987.02
2016-11-20T07:59:32.637Z,987.24
2016-11-20T08:00:31.690Z,987.28
2016-11-20T08:01:31.648Z,987.26
2016-11-20T08:02:31.654Z,987.4
2016-11-20T08:03:31.661Z,987.4
2016-11-20T08:04:31.667Z,987.35
2016-11-20T08:05:31.674Z,987.38
2016-11-20T08:06:31.679Z,987.26
2016-11-20T08:07:31.687Z,987.23
2016-11-20T08:08:31.742Z,987.2
2016-11-20T08:09:31.699Z,987.18
2016-11-20T08:10:31.707Z,987.17
2016-11-20T08:11:31.712Z,987.09
2016-11-20T08:12:31.768Z,987.06
2016-11-20T08:13:31.724Z,986.91
2016-11-20T08:14:31.732Z,986.86
2016-11-20T08:15:31.737Z,986.97
2016-11-20T08:16:31.744Z,986.93
2016-11-20T08:17:31.750Z,987
2016-11-20T08:18:31.758Z,986.79
2016-11-20T08:19:31.863Z,986.72
2016-11-20T08:20:31.771Z,986.67
2016-11-20T08:21:31.777Z,986.86
2016-11-20T08:22:31.782Z,987.01
2016-11-20T08:23:31.839Z,986.93
2016-11-20T08:24:31.796Z,987.17
2016-11-20T08:25:31.804Z,987.05
2016-11-20T08:26:31.808Z,987.02
2016-11-20T08:27:31.815Z,986.96
2016-11-20T08:28:31.822Z,986.74
2016-11-20T08:29:31.829Z,986.96
2016-11-20T08:30:32.335Z,986.95
2016-11-20T08:31:31.842Z,986.9
2016-11-20T08:32:31.848Z,986.89
2016-11-20T08:33:31.904Z,986.84
2016-11-20T08:34:31.909Z,986.91
2016-11-20T08:35:31.868Z,986.77
2016-11-20T08:36:31.874Z,986.78
2016-11-20T08:37:31.881Z,986.77
2016-11-20T08:38:31.886Z,986.8
2016-11-20T08:39:31.894Z,986.85
2016-11-20T08:40:31.900Z,986.85
2016-11-20T08:41:33.056Z,986.79
2016-11-20T08:42:31.962Z,986.81
2016-11-20T08:43:31.970Z,986.82
2016-11-20T08:45:31.934Z,986.87
2016-11-20T08:46:31.939Z,986.91
2016-11-20T08:47:31.946Z,987.01
2016-11-20T08:48:32.001Z,986.96
2016-11-20T08:49:32.009Z,986.82
2016-11-20T08:50:31.965Z,986.68
2016-11-20T08:51:31.972Z,986.63
2016-11-20T08:52:31.978Z,986.55
2016-11-20T08:53:32.035Z,986.6
2016-11-20T08:54:31.992Z,986.7
2016-11-20T08:55:31.998Z,986.59
2016-11-20T08:56:32.005Z,986.56
2016-11-20T08:57:32.061Z,986.53
2016-11-20T08:58:32.018Z,986.6
2016-11-20T08:59:32.024Z,986.59
2016-11-20T09:00:32.029Z,986.77
2016-11-20T09:01:32.037Z,986.69
2016-11-20T09:02:32.044Z,986.74
2016-11-20T09:03:32.051Z,986.65
2016-11-20T09:04:32.057Z,986.62
2016-11-20T09:05:32.066Z,986.68
2016-11-20T09:06:32.069Z,986.47
2016-11-20T09:07:32.076Z,986.31
2016-11-20T09:08:32.083Z,986.51
2016-11-20T09:09:32.091Z,986.42
2016-11-20T09:10:32.096Z,986.64
2016-11-20T09:11:32.105Z,986.45
2016-11-20T09:12:32.111Z,986.6
2016-11-20T09:13:32.117Z,986.82
2016-11-20T09:14:32.124Z,986.6
2016-11-20T09:15:32.130Z,986.68
2016-11-20T09:16:32.137Z,986.55
2016-11-20T09:17:32.191Z,986.71
2016-11-20T09:18:32.149Z,986.78
2016-11-20T09:19:32.156Z,986.56
2016-11-20T09:20:32.163Z,986.64
2016-11-20T09:21:32.169Z,986.61
2016-11-20T09:22:32.176Z,986.6
2016-11-20T09:23:32.183Z,986.6
2016-11-20T09:24:32.189Z,986.61
2016-11-20T09:25:32.198Z,986.79
2016-11-20T09:26:32.203Z,986.69
2016-11-20T09:27:33.311Z,986.68
2016-11-20T09:28:32.216Z,986.7
2016-11-20T09:29:32.225Z,986.81
2016-11-20T09:30:32.280Z,986.69
2016-11-20T09:31:32.237Z,986.7
2016-11-20T09:32:32.392Z,986.77
2016-11-20T09:33:32.251Z,986.71
2016-11-20T09:34:32.257Z,986.61
2016-11-20T09:35:32.263Z,986.77
2016-11-20T09:36:32.270Z,986.85
2016-11-20T09:37:32.278Z,986.76
2016-11-20T09:38:32.285Z,986.7
2016-11-20T09:39:32.290Z,986.51
2016-11-20T09:40:32.301Z,986.59
2016-11-20T09:41:32.354Z,986.69
2016-11-20T09:42:32.311Z,986.45
2016-11-20T09:43:32.318Z,986.54
2016-11-20T09:44:32.373Z,986.43
2016-11-20T09:45:32.330Z,986.72
2016-11-20T09:46:32.336Z,986.55
2016-11-20T09:47:32.493Z,986.51
2016-11-20T09:48:32.350Z,986.44
2016-11-20T09:49:32.357Z,986.54
2016-11-20T09:50:32.363Z,986.5
2016-11-20T09:51:32.370Z,986.41
2016-11-20T09:52:32.377Z,986.5
2016-11-20T09:53:32.382Z,986.48
2016-11-20T09:54:32.390Z,986.43
2016-11-20T09:55:32.397Z,986.48
2016-11-20T09:56:32.404Z,986.32
2016-11-20T09:57:32.411Z,986.28
2016-11-20T09:58:32.817Z,986.33
2016-11-20T09:59:32.424Z,986.4
2016-11-20T10:00:32.430Z,986.34
2016-11-20T10:01:32.436Z,986.41
2016-11-20T10:02:32.443Z,986.31
2016-11-20T10:03:32.450Z,986.17
2016-11-20T10:04:32.457Z,986.22
2016-11-20T10:05:32.463Z,986.15
2016-11-20T10:06:32.471Z,986.14
2016-11-20T10:07:32.477Z,986.21
2016-11-20T10:08:32.483Z,986.06
2016-11-20T10:09:32.542Z,986.22
2016-11-20T10:10:32.496Z,986.21
2016-11-20T10:11:32.555Z,986.12
2016-11-20T10:12:32.510Z,986.04
2016-11-20T10:13:32.518Z,986.12
2016-11-20T10:14:32.524Z,986.25
2016-11-20T10:15:32.531Z,986.19
2016-11-20T10:16:32.536Z,986.12
2016-11-20T10:17:32.544Z,986.24
2016-11-20T10:18:32.550Z,986.21
2016-11-20T10:19:32.556Z,986.12
2016-11-20T10:20:32.562Z,986.17
2016-11-20T10:21:32.570Z,986.08
2016-11-20T10:22:32.579Z,986.12
2016-11-20T10:23:32.584Z,986.12
2016-11-20T10:24:32.590Z,986.01
2016-11-20T10:25:32.597Z,986.01
2016-11-20T10:26:32.604Z,986.01
2016-11-20T10:27:32.609Z,986.02
2016-11-20T10:28:32.617Z,986.08
2016-11-20T10:29:32.624Z,986.03
2016-11-20T10:30:32.630Z,985.99
2016-11-20T10:31:33.189Z,986.07
2016-11-20T10:32:32.644Z,986.11
2016-11-20T10:33:32.651Z,985.99
2016-11-20T10:34:32.707Z,985.93
2016-11-20T10:35:32.664Z,986.13
2016-11-20T10:36:32.670Z,986.02
2016-11-20T10:37:32.677Z,985.99
2016-11-20T10:38:32.683Z,986.03
2016-11-20T10:39:32.738Z,986.04
2016-11-20T10:40:32.696Z,986
2016-11-20T10:41:32.703Z,985.78
2016-11-20T10:42:32.711Z,985.91
2016-11-20T10:43:32.717Z,985.95
2016-11-20T10:44:32.725Z,985.85
2016-11-20T10:45:32.730Z,985.92
2016-11-20T10:46:32.737Z,986.08
2016-11-20T10:47:32.744Z,986
2016-11-20T10:48:32.753Z,985.97
2016-11-20T10:49:32.756Z,985.88
2016-11-20T10:50:32.814Z,985.88
2016-11-20T10:51:32.772Z,985.92
2016-11-20T10:52:32.776Z,986.05
2016-11-20T10:53:32.933Z,986
2016-11-20T10:54:32.790Z,985.86
2016-11-20T10:55:32.796Z,985.75
2016-11-20T10:56:32.804Z,985.76
2016-11-20T10:57:32.861Z,985.9
2016-11-20T10:58:32.817Z,986.12
2016-11-20T10:59:32.824Z,985.82
2016-11-20T11:00:32.830Z,985.8
2016-11-20T11:01:32.837Z,985.77
2016-11-20T11:02:32.844Z,985.82
2016-11-20T11:03:32.851Z,985.81
2016-11-20T11:04:32.907Z,985.99
2016-11-20T11:05:32.865Z,985.86
2016-11-20T11:06:32.921Z,985.59
2016-11-20T11:07:32.877Z,985.82
2016-11-20T11:08:32.935Z,985.68
2016-11-20T11:09:32.892Z,985.71
2016-11-20T11:10:32.898Z,985.82
2016-11-20T11:11:32.905Z,985.66
2016-11-20T11:12:32.965Z,985.84
2016-11-20T11:13:32.919Z,985.85
2016-11-20T11:14:32.925Z,985.54
2016-11-20T11:15:32.983Z,985.74
2016-11-20T11:16:32.939Z,985.81
2016-11-20T11:17:33.898Z,985.86
2016-11-20T11:18:32.953Z,985.68
2016-11-20T11:19:32.963Z,985.83
2016-11-20T11:20:32.966Z,985.81
2016-11-20T11:21:32.973Z,985.84
2016-11-20T11:22:32.980Z,985.72
2016-11-20T11:23:33.037Z,985.89
2016-11-20T11:24:32.994Z,985.75
2016-11-20T11:25:33.000Z,985.79
2016-11-20T11:26:33.057Z,985.78
2016-11-20T11:27:33.016Z,985.8
2016-11-20T11:28:33.021Z,985.76
2016-11-20T11:29:33.027Z,985.77
2016-11-20T11:30:33.035Z,985.69
2016-11-20T11:31:33.041Z,985.76
2016-11-20T11:32:33.047Z,985.89
2016-11-20T11:33:33.055Z,985.79
2016-11-20T11:34:33.061Z,985.92
2016-11-20T11:35:33.069Z,985.88
2016-11-20T11:36:33.076Z,986.21
2016-11-20T11:37:33.082Z,985.9
2016-11-20T11:38:33.089Z,985.93
2016-11-20T11:39:33.295Z,985.89
2016-11-20T11:40:33.100Z,986
2016-11-20T11:41:33.109Z,985.83
2016-11-20T11:42:33.116Z,985.95
2016-11-20T11:43:33.170Z,986.05
2016-11-20T11:44:33.129Z,985.85
2016-11-20T11:45:33.136Z,985.65
2016-11-20T11:46:33.142Z,985.86
2016-11-20T11:47:33.149Z,985.9
2016-11-20T11:48:33.155Z,986.01
2016-11-20T11:49:33.161Z,986.02
2016-11-20T11:50:33.220Z,985.91
2016-11-20T11:51:33.228Z,985.97
2016-11-20T11:52:33.182Z,985.98
2016-11-20T11:53:33.189Z,985.91
2016-11-20T11:54:33.446Z,986.12
2016-11-20T11:55:33.252Z,986.01
2016-11-20T11:56:33.211Z,986.12
2016-11-20T11:57:33.217Z,986.14
2016-11-20T11:58:33.223Z,986.16
2016-11-20T11:59:33.230Z,986.17
2016-11-20T12:00:33.285Z,986.17
2016-11-20T12:01:33.255Z,986.11
2016-11-20T12:02:33.249Z,986.17
2016-11-20T12:03:34.208Z,986.28
2016-11-20T12:04:33.263Z,986.18
2016-11-20T12:05:33.270Z,986.28
2016-11-20T12:06:33.277Z,986.28
2016-11-20T12:07:33.284Z,986.2
2016-11-20T12:08:33.290Z,986.25
2016-11-20T12:09:33.298Z,986.29
2016-11-20T12:10:33.303Z,986.39
2016-11-20T12:11:33.311Z,986.3
2016-11-20T12:12:33.318Z,986.37
2016-11-20T12:13:33.373Z,986.43
2016-11-20T12:14:33.330Z,986.2
2016-11-20T12:15:33.336Z,986.28
2016-11-20T12:16:33.393Z,986.22
2016-11-20T12:17:33.349Z,986.43
2016-11-20T12:18:33.356Z,986.55
2016-11-20T12:19:33.414Z,986.46
2016-11-20T12:20:33.368Z,986.36
2016-11-20T12:21:33.376Z,986.44
2016-11-20T12:22:33.382Z,986.33
2016-11-20T12:23:33.390Z,986.33
2016-11-20T12:24:33.447Z,986.44
2016-11-20T12:25:34.053Z,986.33
2016-11-20T12:26:33.409Z,986.42
2016-11-20T12:27:33.467Z,986.48
2016-11-20T12:28:33.422Z,986.46
2016-11-20T12:29:33.430Z,986.49
2016-11-20T12:30:33.436Z,986.54
2016-11-20T12:31:33.491Z,986.54
2016-11-20T12:32:33.499Z,986.44
2016-11-20T12:33:33.456Z,986.45